Time,TemperatureF,DewpointF,PressureIn,WindDirection,WindDirectionDegrees,WindSpeedMPH,WindSpeedGustMPH,Humidity,HourlyPrecipIn,Conditions,Clouds,dailyrainin,SoftwareType,DateUTC
2013-03-18 00:06:00,41.2,40.0,30.00,SSW,193,0.0,1.0,96,0.00,,,0.08,weatherlink.com 1.10,2013-03-18 04:06:00,
2013-03-18 00:21:00,41.2,40.0,30.00,SSW,193,0.0,0.0,96,0.00,,,0.08,weatherlink.com 1.10,2013-03-18 04:21:00,
2013-03-18 00:37:00,41.1,40.0,29.99,SSW,193,0.0,1.0,96,0.00,,,0.08,weatherlink.com 1.10,2013-03-18 04:37:00,
2013-03-18 00:51:00,41.1,40.0,29.99,SSW,193,0.0,1.0,96,0.00,,,0.08,weatherlink.com 1.10,2013-03-18 04:51:00,
2013-03-18 01:07:00,40.9,40.0,29.99,SSW,193,0.0,0.0,96,0.00,,,0.08,weatherlink.com 1.10,2013-03-18 05:07:00,
2013-03-18 01:22:00,41.0,40.0,29.99,SSW,193,0.0,0.0,96,0.00,,,0.08,weatherlink.com 1.10,2013-03-18 05:22:00,
2013-03-18 01:37:00,41.1,40.0,30.00,SSW,193,0.0,0.0,96,0.00,,,0.08,weatherlink.com 1.10,2013-03-18 05:37:00,
2013-03-18 01:52:00,40.7,40.0,30.00,SSW,193,0.0,1.0,96,0.00,,,0.08,weatherlink.com 1.10,2013-03-18 05:52:00,
2013-03-18 02:07:00,40.1,39.0,30.00,SSW,193,0.0,0.0,96,0.00,,,0.08,weatherlink.com 1.10,2013-03-18 06:07:00,
2013-03-18 02:22:00,39.7,39.0,30.00,SSW,193,0.0,1.0,96,0.00,,,0.08,weatherlink.com 1.10,2013-03-18 06:22:00,
2013-03-18 02:39:00,39.7,39.0,30.00,SSE,163,0.0,0.0,97,0.00,,,0.08,weatherlink.com 1.10,2013-03-18 06:39:00,
2013-03-18 02:52:00,39.1,38.0,30.00,SSE,163,0.0,0.0,97,0.00,,,0.08,weatherlink.com 1.10,2013-03-18 06:52:00,
2013-03-18 03:07:00,38.6,38.0,30.00,SSE,163,0.0,1.0,96,0.00,,,0.08,weatherlink.com 1.10,2013-03-18 07:07:00,
2013-03-18 03:22:00,38.6,38.0,30.00,SSE,163,0.0,0.0,97,0.00,,,0.00,weatherlink.com 1.10,2013-03-18 07:22:00,
2013-03-18 03:37:00,38.3,38.0,30.00,SSE,163,0.0,1.0,97,0.00,,,0.00,weatherlink.com 1.10,2013-03-18 07:37:00,
2013-03-18 03:52:00,37.5,37.0,30.00,SSE,163,0.0,0.0,97,0.00,,,0.00,weatherlink.com 1.10,2013-03-18 07:52:00,
2013-03-18 04:07:00,36.9,36.0,30.00,SSE,149,0.0,1.0,97,0.00,,,0.00,weatherlink.com 1.10,2013-03-18 08:07:00,
2013-03-18 04:22:00,37.1,36.0,29.99,NE,42,2.0,2.0,97,0.00,,,0.00,weatherlink.com 1.10,2013-03-18 08:22:00,
2013-03-18 04:37:00,36.6,36.0,29.98,NNE,19,0.0,3.0,97,0.00,,,0.00,weatherlink.com 1.10,2013-03-18 08:37:00,
2013-03-18 04:52:00,37.1,36.0,29.97,NE,43,3.0,4.0,97,0.00,,,0.00,weatherlink.com 1.10,2013-03-18 08:52:00,
2013-03-18 05:07:00,37.4,37.0,29.97,North,350,0.0,2.0,97,0.00,,,0.00,weatherlink.com 1.10,2013-03-18 09:07:00,
2013-03-18 05:22:00,37.3,37.0,29.97,North,357,1.0,2.0,97,0.00,,,0.00,weatherlink.com 1.10,2013-03-18 09:22:00,
2013-03-18 05:37:00,37.7,37.0,29.97,NNE,19,0.0,2.0,97,0.00,,,0.00,weatherlink.com 1.10,2013-03-18 09:37:00,
2013-03-18 05:52:00,37.1,36.0,29.97,NNE,22,1.0,2.0,97,0.01,,,0.01,weatherlink.com 1.10,2013-03-18 09:52:00,
2013-03-18 06:07:00,38.4,38.0,29.97,NE,39,0.0,1.0,98,0.01,,,0.01,weatherlink.com 1.10,2013-03-18 10:07:00,
2013-03-18 06:22:00,37.0,36.0,29.96,NE,40,0.0,1.0,97,0.01,,,0.01,weatherlink.com 1.10,2013-03-18 10:22:00,
2013-03-18 06:37:00,35.8,35.0,29.95,NE,40,0.0,1.0,97,0.01,,,0.01,weatherlink.com 1.10,2013-03-18 10:37:00,
2013-03-18 06:52:00,36.0,35.0,29.94,NE,41,1.0,1.0,97,0.00,,,0.01,weatherlink.com 1.10,2013-03-18 10:52:00,
2013-03-18 07:07:00,36.1,35.0,29.94,North,4,1.0,2.0,97,0.00,,,0.01,weatherlink.com 1.10,2013-03-18 11:07:00,
2013-03-18 07:22:00,36.5,36.0,29.94,SE,135,0.0,1.0,98,0.00,,,0.01,weatherlink.com 1.10,2013-03-18 11:22:00,
2013-03-18 07:37:00,36.5,36.0,29.94,North,356,0.0,2.0,98,0.00,,,0.01,weatherlink.com 1.10,2013-03-18 11:37:00,
2013-03-18 07:52:00,35.7,35.0,29.93,NNE,24,2.0,2.0,97,0.00,,,0.01,weatherlink.com 1.10,2013-03-18 11:52:00,
2013-03-18 08:07:00,37.4,37.0,29.94,NNE,13,1.0,2.0,98,0.00,,,0.01,weatherlink.com 1.10,2013-03-18 12:07:00,
2013-03-18 08:22:00,37.2,37.0,29.93,SE,134,0.0,1.0,98,0.00,,,0.01,weatherlink.com 1.10,2013-03-18 12:22:00,
2013-03-18 08:37:00,36.9,36.0,29.93,SSE,165,0.0,1.0,97,0.00,,,0.01,weatherlink.com 1.10,2013-03-18 12:37:00,
2013-03-18 08:52:00,38.4,38.0,29.93,ESE,114,0.0,1.0,98,0.00,,,0.01,weatherlink.com 1.10,2013-03-18 12:52:00,
2013-03-18 09:07:00,40.8,40.0,29.93,North,354,0.0,1.0,98,0.00,,,0.01,weatherlink.com 1.10,2013-03-18 13:07:00,
2013-03-18 09:22:00,43.6,43.0,29.94,SSE,147,0.0,2.0,98,0.00,,,0.01,weatherlink.com 1.10,2013-03-18 13:22:00,
2013-03-18 09:38:00,47.0,46.0,29.93,South,175,6.0,17.0,97,0.00,,,0.01,weatherlink.com 1.10,2013-03-18 13:38:00,
2013-03-18 09:53:00,48.6,44.0,29.92,SSE,166,4.0,15.0,83,0.00,,,0.01,weatherlink.com 1.10,2013-03-18 13:53:00,
2013-03-18 10:08:00,49.8,44.0,29.92,SSE,152,4.0,8.0,79,0.00,,,0.01,weatherlink.com 1.10,2013-03-18 14:08:00,
2013-03-18 10:23:00,50.6,44.0,29.92,SE,129,1.0,9.0,77,0.00,,,0.01,weatherlink.com 1.10,2013-03-18 14:23:00,
2013-03-18 10:38:00,51.6,45.0,29.92,South,169,0.0,8.0,78,0.00,,,0.01,weatherlink.com 1.10,2013-03-18 14:38:00,
2013-03-18 10:53:00,53.6,45.0,29.91,South,169,4.0,8.0,72,0.00,,,0.01,weatherlink.com 1.10,2013-03-18 14:53:00,
2013-03-18 11:08:00,53.7,45.0,29.91,SW,233,3.0,6.0,72,0.00,,,0.01,weatherlink.com 1.10,2013-03-18 15:08:00,
2013-03-18 11:23:00,53.1,45.0,29.93,ENE,71,0.0,3.0,73,0.00,,,0.01,weatherlink.com 1.10,2013-03-18 15:23:00,
2013-03-18 11:38:00,51.8,47.0,29.94,NNE,25,1.0,3.0,83,0.08,,,0.09,weatherlink.com 1.10,2013-03-18 15:38:00,
2013-03-18 11:53:00,50.5,47.0,29.92,South,188,1.0,2.0,87,0.09,,,0.10,weatherlink.com 1.10,2013-03-18 15:53:00,
2013-03-18 12:08:00,50.8,48.0,29.92,SW,233,0.0,3.0,89,0.11,,,0.12,weatherlink.com 1.10,2013-03-18 16:08:00,
2013-03-18 12:23:00,50.4,48.0,29.93,SSW,204,3.0,8.0,90,0.14,,,0.15,weatherlink.com 1.10,2013-03-18 16:23:00,
2013-03-18 12:38:00,49.9,47.0,29.90,East,90,0.0,3.0,91,0.10,,,0.19,weatherlink.com 1.10,2013-03-18 16:38:00,
2013-03-18 13:08:00,49.5,48.0,29.90,NNE,30,1.0,1.0,95,0.11,,,0.23,weatherlink.com 1.10,2013-03-18 17:08:00,
2013-03-18 13:23:00,49.3,48.0,29.92,NNE,31,2.0,2.0,95,0.11,,,0.26,weatherlink.com 1.10,2013-03-18 17:23:00,
2013-03-18 13:38:00,48.9,48.0,29.92,NE,42,0.0,5.0,96,0.15,,,0.34,weatherlink.com 1.10,2013-03-18 17:38:00,
2013-03-18 13:53:00,49.0,48.0,29.93,SE,136,1.0,1.0,96,0.20,,,0.40,weatherlink.com 1.10,2013-03-18 17:53:00,
2013-03-18 14:08:00,48.9,48.0,29.95,NNE,32,0.0,3.0,96,0.25,,,0.48,weatherlink.com 1.10,2013-03-18 18:08:00,
2013-03-18 14:23:00,49.0,48.0,29.95,North,4,1.0,1.0,96,0.33,,,0.59,weatherlink.com 1.10,2013-03-18 18:23:00,
2013-03-18 14:53:00,49.4,48.0,29.94,SE,145,0.0,6.0,96,0.27,,,0.68,weatherlink.com 1.10,2013-03-18 18:53:00,
2013-03-18 15:09:00,49.5,48.0,29.94,SSE,150,0.0,2.0,96,0.20,,,0.70,weatherlink.com 1.10,2013-03-18 19:09:00,
2013-03-18 15:39:00,49.9,49.0,29.91,ENE,58,2.0,2.0,97,0.09,,,0.75,weatherlink.com 1.10,2013-03-18 19:39:00,
2013-03-18 15:54:00,49.7,49.0,29.91,NNE,20,0.0,2.0,97,0.08,,,0.76,weatherlink.com 1.10,2013-03-18 19:54:00,
2013-03-18 16:09:00,49.7,49.0,29.90,NE,39,2.0,3.0,97,0.11,,,0.81,weatherlink.com 1.10,2013-03-18 20:09:00,
2013-03-18 16:23:00,49.7,49.0,29.90,ESE,113,0.0,2.0,97,0.12,,,0.84,weatherlink.com 1.10,2013-03-18 20:23:00,
2013-03-18 16:38:00,49.9,49.0,29.91,South,172,0.0,1.0,97,0.10,,,0.85,weatherlink.com 1.10,2013-03-18 20:38:00,
2013-03-18 16:53:00,49.9,49.0,29.89,East,93,1.0,1.0,97,0.12,,,0.88,weatherlink.com 1.10,2013-03-18 20:53:00,
2013-03-18 17:08:00,49.9,49.0,29.89,NNE,27,1.0,2.0,97,0.09,,,0.90,weatherlink.com 1.10,2013-03-18 21:08:00,
2013-03-18 17:23:00,49.8,49.0,29.88,ENE,61,0.0,2.0,97,0.11,,,0.95,weatherlink.com 1.10,2013-03-18 21:23:00,
2013-03-18 17:38:00,49.7,49.0,29.87,SSE,155,0.0,3.0,97,0.13,,,0.98,weatherlink.com 1.10,2013-03-18 21:38:00,
2013-03-18 17:54:00,49.6,49.0,29.84,NNE,17,2.0,4.0,97,0.12,,,1.00,weatherlink.com 1.10,2013-03-18 21:54:00,
2013-03-18 18:08:00,49.5,49.0,29.83,SE,132,8.0,8.0,97,0.09,,,1.00,weatherlink.com 1.10,2013-03-18 22:08:00,
2013-03-18 18:39:00,49.4,48.0,29.85,ESE,113,0.0,1.0,96,0.02,,,1.00,weatherlink.com 1.10,2013-03-18 22:39:00,
2013-03-18 18:54:00,49.1,48.0,29.85,ESE,113,0.0,1.0,96,0.00,,,1.00,weatherlink.com 1.10,2013-03-18 22:54:00,
2013-03-18 19:09:00,48.9,48.0,29.85,South,187,1.0,2.0,96,0.00,,,1.00,weatherlink.com 1.10,2013-03-18 23:09:00,
2013-03-18 19:24:00,49.1,48.0,29.85,SSW,198,3.0,7.0,95,0.00,,,1.00,weatherlink.com 1.10,2013-03-18 23:24:00,
2013-03-18 19:39:00,49.5,48.0,29.86,SSE,155,4.0,8.0,93,0.00,,,1.00,weatherlink.com 1.10,2013-03-18 23:39:00,
2013-03-18 19:54:00,49.4,48.0,29.86,SE,136,1.0,4.0,93,0.00,,,1.00,weatherlink.com 1.10,2013-03-18 23:54:00,
2013-03-18 20:09:00,49.3,47.0,29.85,SE,143,1.0,3.0,93,0.00,,,1.00,weatherlink.com 1.10,2013-03-19 00:09:00,
2013-03-18 20:24:00,49.4,48.0,29.85,South,169,0.0,3.0,93,0.00,,,1.00,weatherlink.com 1.10,2013-03-19 00:24:00,
2013-03-18 20:39:00,49.2,48.0,29.85,SE,141,1.0,3.0,94,0.00,,,1.00,weatherlink.com 1.10,2013-03-19 00:39:00,
2013-03-18 20:54:00,49.1,47.0,29.84,SSE,160,1.0,3.0,93,0.00,,,1.00,weatherlink.com 1.10,2013-03-19 00:54:00,
2013-03-18 21:09:00,48.9,47.0,29.84,SE,140,0.0,2.0,94,0.00,,,1.00,weatherlink.com 1.10,2013-03-19 01:09:00,
2013-03-18 21:24:00,48.5,47.0,29.84,SE,140,0.0,1.0,94,0.00,,,1.00,weatherlink.com 1.10,2013-03-19 01:24:00,
2013-03-18 21:39:00,48.0,47.0,29.84,SE,141,0.0,1.0,95,0.00,,,1.00,weatherlink.com 1.10,2013-03-19 01:39:00,
2013-03-18 21:54:00,47.9,47.0,29.85,SE,141,0.0,0.0,96,0.00,,,1.00,weatherlink.com 1.10,2013-03-19 01:54:00,
2013-03-18 22:09:00,48.0,47.0,29.85,SE,141,0.0,1.0,96,0.00,,,1.00,weatherlink.com 1.10,2013-03-19 02:09:00,
2013-03-18 22:24:00,47.7,47.0,29.84,SE,141,0.0,1.0,96,0.00,,,1.00,weatherlink.com 1.10,2013-03-19 02:24:00,
2013-03-18 22:54:00,46.7,46.0,29.84,SE,134,0.0,1.0,97,0.00,,,1.00,weatherlink.com 1.10,2013-03-19 02:54:00,
2013-03-18 23:09:00,46.6,46.0,29.84,NNE,29,1.0,2.0,97,0.00,,,1.00,weatherlink.com 1.10,2013-03-19 03:09:00,
2013-03-18 23:24:00,46.0,45.0,29.84,NNE,27,0.0,1.0,97,0.00,,,1.00,weatherlink.com 1.10,2013-03-19 03:24:00,
2013-03-18 23:39:00,46.0,45.0,29.84,ESE,113,0.0,1.0,97,0.00,,,1.00,weatherlink.com 1.10,2013-03-19 03:39:00,
2013-03-18 23:54:00,45.8,45.0,29.84,NE,51,1.0,1.0,97,0.00,,,1.00,weatherlink.com 1.10,2013-03-19 03:54:00,